Flight Track Log - Related Links

Times and Time Zones

All times are in EDT time to prevent confusion due to time zone crossing. See the N560WW flight status page for this flight to view local times or setup timezone preferences in your user account.

Time Position Orientation Groundspeed Altitude Reporting Facility
EDT Latitude Longitude Course Direction KTS MPH feet Rate Location/Type
Wed 02:13:25 PM 35.4917 -101.1317 226° Southwest 222 255 12,200  Level Albuquerque Center
Wed 02:14:27 PM 35.4333 -101.1528 196° South 217 250 15,400 2,341 Climbing Albuquerque Center
Wed 02:15:28 PM 35.3569 -101.1767 194° South 256 295 17,000 1,610 Climbing Albuquerque Center
Wed 02:16:30 PM 35.2714 -101.2039 195° South 296 341 18,700 1,839 Climbing Albuquerque Center
Wed 02:17:00 PM 35.0834 -101.1682 193° South  Level FlightAware Approximate
Wed 02:17:32 PM 35.1839 -101.2314 194° South 312 359 20,800  Level Albuquerque Center
Wed 02:18:34 PM 35.0939 -101.2592 194° South 322 371 22,500 1,839 Climbing Albuquerque Center
Wed 02:19:36 PM 34.9858 -101.2925 194° South 330 380 24,600 1,659 Climbing Albuquerque Center
Wed 02:20:37 PM 34.8928 -101.3206 194° South 338 389 25,900 683 Climbing Albuquerque Center
Wed 02:21:39 PM 34.7925 -101.3514 194° South 360 414 26,000 48 Climbing Albuquerque Center
Wed 02:22:41 PM 34.6856 -101.3858 195° South 389 448 26,000  Level Albuquerque Center
Wed 02:23:43 PM 34.5778 -101.4214 195° South 400 460 26,000  Level Albuquerque Center
Wed 02:24:44 PM 34.4692 -101.4544 194° South 400 460 26,000  Level Albuquerque Center
Wed 02:26:03 PM 34.3403 -101.4956 195° South 395 455 26,000  Level Fort Worth Center
Wed 02:27:03 PM 34.2267 -101.5303 194° South 390 449 26,000  Level Fort Worth Center
Wed 02:28:03 PM 34.1147 -101.5675 195° South 384 442 26,000  Level Fort Worth Center
Wed 02:29:03 PM 34.0242 -101.5958 195° South 384 442 26,000  Level Fort Worth Center
Wed 02:30:03 PM 33.9103 -101.6281 193° South 384 442 26,000  Level Fort Worth Center
Wed 02:31:03 PM 33.8194 -101.6586 196° South 384 442 26,000  Level Fort Worth Center
Wed 02:32:03 PM 33.7222 -101.7011 200° South 384 442 26,000  Level Fort Worth Center
Wed 02:33:02 PM 33.6208 -101.7336 195° South 384 442 26,000  Level Fort Worth Center
Wed 02:34:03 PM 33.5236 -101.7711 198° South 384 442 26,000  Level Fort Worth Center
Wed 02:35:03 PM 33.4136 -101.8081 196° South 384 442 26,000  Level Fort Worth Center
Wed 02:36:03 PM 33.3144 -101.8453 197° South 378 435 26,000  Level Fort Worth Center
Wed 02:37:03 PM 33.2169 -101.8803 197° South 378 435 26,000  Level Fort Worth Center
Wed 02:38:03 PM 33.1178 -101.9175 197° South 378 435 26,000  Level Fort Worth Center
Wed 02:39:03 PM 33.0206 -101.9522 197° South 378 435 26,000  Level Fort Worth Center
Wed 02:40:03 PM 32.9317 -101.9797 195° South 373 429 26,000  Level Fort Worth Center
Wed 02:41:03 PM 32.8325 -102.0094 194° South 368 423 26,000  Level Fort Worth Center
Wed 02:42:03 PM 32.7350 -102.0486 199° South 368 423 26,000  Level Fort Worth Center
Wed 02:43:03 PM 32.6378 -102.0856 198° South 368 423 26,000 -900 Level Fort Worth Center
Wed 02:44:03 PM 32.5361 -102.1247 198° South 373 429 24,200 -2,600 Descending Fort Worth Center
Wed 02:45:03 PM 32.4281 -102.1658 198° South 378 435 20,800 -3,450 Descending Fort Worth Center
Wed 02:46:03 PM 32.3367 -102.2103 202° Southwest 372 428 17,300 -3,681 Descending Fort Worth Center
Wed 02:47:02 PM 32.2553 -102.2672 211° Southwest 353 406 13,500 -3,700 Descending Fort Worth Center
Wed 02:48:03 PM 32.1800 -102.3222 212° Southwest 342 394 9,900 -3,124 Descending Fort Worth Center
Wed 02:49:03 PM 32.1156 -102.3678 211° Southwest 310 357 7,200 -2,300 Descending Fort Worth Center
Wed 02:50:03 PM 32.0531 -102.4158 213° Southwest 282 325 5,300 -1,100 Descending Fort Worth Center
Wed 02:51:03 PM 32.0086 -102.3792 145° Southeast 192 221 5,000 -100 Descending Fort Worth Center
Wed 02:52:03 PM 31.9839 -102.3189 116° Southeast 172 198 5,100 -250 Climbing Fort Worth Center
Wed 02:53:03 PM 31.9647 -102.2714 115° Southeast 166 191 4,500 -900 Descending Fort Worth Center
Wed 02:54:03 PM 31.9536 -102.2364 111° Southeast 144 166 3,300 -750 Descending Fort Worth Center
Wed 02:55:03 PM 31.9383 -102.2039 119° Southeast 134 154 3,000 5,350 Descending Fort Worth Center
Wed 02:56:03 PM 31.9231 -102.1664 116° Southeast 134 154 14,000 11,000 Climbing Fort Worth Center

Login

Don't have an account? Register now (free) for customized features, flight alerts, and more!